Time;durP1;ratioP1;P1;durP2;ratioP2;P2;SDS_P1;SDS_P2;PMS_P1;PMS_P2;Temp;Humidity;BMP_temperature;BMP_pressure;BME280_temperature;BME280_humidity;BME280_pressure;Samples;Min_cycle;Max_cycle;Signal;HPM_P1;HPM_P2
2023/03/22 00:00:48;;;;;;;5.80;5.22;;;;;;;9.71;67.23;93511.88;4998517;28;20140;-77
2023/03/22 00:03:13;;;;;;;8.85;6.05;;;;;;;9.75;66.68;93515.47;5011030;28;20026;-77
2023/03/22 00:05:39;;;;;;;7.40;5.60;;;;;;;9.54;67.14;93489.84;5011151;28;20033;-78
2023/03/22 00:08:06;;;;;;;6.35;5.75;;;;;;;9.64;67.51;93513.44;5009086;28;20068;-78
2023/03/22 00:10:32;;;;;;;7.20;5.80;;;;;;;9.65;67.32;93520.31;5010811;28;20040;-76
2023/03/22 00:12:58;;;;;;;7.75;6.47;;;;;;;9.80;67.03;93517.97;5007660;28;20074;-77
2023/03/22 00:15:23;;;;;;;9.40;7.40;;;;;;;9.80;66.95;93519.81;5012605;28;20022;-78
2023/03/22 00:17:49;;;;;;;7.32;6.63;;;;;;;9.77;66.95;93513.28;5008343;28;20030;-79
2023/03/22 00:20:16;;;;;;;7.60;6.57;;;;;;;9.74;66.56;93515.75;5005622;28;20045;-77
2023/03/22 00:22:42;;;;;;;8.40;6.82;;;;;;;9.59;66.82;93495.00;4993091;28;20140;-77
2023/03/22 00:25:09;;;;;;;7.72;6.97;;;;;;;9.73;66.99;93514.22;5003735;28;20046;-78
2023/03/22 00:27:35;;;;;;;8.85;7.45;;;;;;;9.74;66.93;93507.81;5008539;28;20029;-78
2023/03/22 00:30:01;;;;;;;10.15;6.60;;;;;;;9.71;66.97;93501.25;5011013;28;20405;-79
2023/03/22 00:32:26;;;;;;;7.65;6.82;;;;;;;9.76;66.90;93513.59;5009405;28;20506;-78
2023/03/22 00:34:51;;;;;;;7.82;6.97;;;;;;;9.77;66.79;93509.84;5008806;28;20567;-77
2023/03/22 00:37:17;;;;;;;7.18;6.47;;;;;;;9.67;66.63;93494.22;5009401;28;20030;-78
2023/03/22 00:39:43;;;;;;;8.50;6.10;;;;;;;9.86;66.77;93507.94;5011049;28;20032;-78
2023/03/22 00:42:09;;;;;;;8.80;6.45;;;;;;;9.57;67.08;93484.72;5009144;28;20025;-78
2023/03/22 00:44:35;;;;;;;6.07;5.38;;;;;;;9.74;66.58;93510.47;5010339;28;20465;-79
2023/03/22 00:47:00;;;;;;;9.05;6.80;;;;;;;9.75;65.59;93504.06;4995841;28;20379;-77
2023/03/22 00:49:26;;;;;;;7.68;6.88;;;;;;;9.74;66.43;93494.53;5009865;28;20044;-77
2023/03/22 00:51:53;;;;;;;6.30;5.68;;;;;;;9.76;66.39;93502.97;4991186;28;20395;-79
2023/03/22 00:54:19;;;;;;;6.60;5.45;;;;;;;9.74;66.54;93497.19;5012004;28;20072;-76
2023/03/22 00:56:44;;;;;;;6.70;6.10;;;;;;;9.87;65.92;93504.22;4990509;28;20034;-77
2023/03/22 00:59:13;;;;;;;7.07;6.30;;;;;;;9.81;65.87;93503.59;5011314;28;20213;-76
2023/03/22 01:01:39;;;;;;;5.80;5.30;;;;;;;9.77;65.91;93499.22;5010167;28;20030;-77
2023/03/22 01:04:05;;;;;;;4.60;4.18;;;;;;;9.71;65.75;93489.84;4991081;28;20045;-76
2023/03/22 01:06:32;;;;;;;7.70;4.85;;;;;;;9.42;66.04;93464.75;5009006;28;20029;-76
2023/03/22 01:08:57;;;;;;;4.93;3.95;;;;;;;9.58;66.24;93488.16;5010302;28;20630;-77
2023/03/22 01:11:23;;;;;;;3.65;3.30;;;;;;;9.57;65.64;93491.91;4997167;28;20041;-77
2023/03/22 01:13:49;;;;;;;3.55;3.22;;;;;;;9.57;65.87;93489.25;5007765;28;20033;-76
2023/03/22 01:16:15;;;;;;;4.05;3.47;;;;;;;9.61;65.48;93490.19;5009125;28;20042;-76
2023/03/22 01:18:40;;;;;;;4.90;3.63;;;;;;;9.45;65.63;93468.63;5009364;28;20544;-76
2023/03/22 01:21:06;;;;;;;4.30;3.78;;;;;;;9.57;65.91;93474.09;5007130;28;20072;-77
2023/03/22 01:23:31;;;;;;;4.13;3.33;;;;;;;9.60;64.97;93492.03;5008100;28;20544;-75
2023/03/22 01:25:57;;;;;;;3.95;3.55;;;;;;;9.43;65.57;93466.31;5008031;28;20046;-75
2023/03/22 01:28:22;;;;;;;4.45;3.92;;;;;;;9.47;65.57;93474.41;5008734;28;20414;-76
2023/03/22 01:30:49;;;;;;;4.65;3.40;;;;;;;9.32;66.62;93467.72;5007053;28;20083;-78
2023/03/22 01:33:14;;;;;;;4.80;3.58;;;;;;;9.34;65.77;93462.84;4994023;28;20022;-78
2023/03/22 01:35:40;;;;;;;3.85;3.50;;;;;;;9.37;65.97;93454.28;4991167;28;20525;-75
2023/03/22 01:38:05;;;;;;;4.35;3.72;;;;;;;9.47;66.43;93481.59;5007493;28;20544;-78
2023/03/22 01:40:31;;;;;;;3.75;3.35;;;;;;;9.44;66.72;93475.81;5010705;28;20056;-79
2023/03/22 01:42:57;;;;;;;4.32;3.38;;;;;;;9.21;66.82;93449.75;4988863;28;20081;-77
2023/03/22 01:45:36;;;;;;;3.33;3.03;;;;;;;9.31;67.42;93458.19;5011715;28;21074;-78
2023/03/22 01:48:07;;;;;;;5.15;3.63;;;;;;;9.27;66.46;93449.28;5007963;28;20628;-77
2023/03/22 01:50:36;;;;;;;5.55;4.10;;;;;;;9.20;66.86;93454.28;5008498;28;20074;-77
2023/03/22 01:53:03;;;;;;;6.30;4.85;;;;;;;9.08;66.86;93430.22;5009607;28;20063;-77
2023/03/22 01:55:32;;;;;;;5.68;5.05;;;;;;;9.27;66.68;93456.47;5009150;28;20045;-77
2023/03/22 01:57:58;;;;;;;6.00;5.40;;;;;;;9.37;66.18;93459.59;4990557;28;20046;-77
2023/03/22 02:00:24;;;;;;;6.10;5.50;;;;;;;9.23;66.75;93453.66;5009151;28;20915;-77
2023/03/22 02:02:51;;;;;;;5.35;4.85;;;;;;;9.18;66.02;93448.53;5006102;28;20042;-77
2023/03/22 02:05:18;;;;;;;4.50;3.72;;;;;;;9.32;66.51;93462.41;5009209;28;21085;-77
2023/03/22 02:07:44;;;;;;;4.25;3.28;;;;;;;9.18;66.28;93451.19;5011911;28;20037;-78
2023/03/22 02:10:20;;;;;;;3.63;3.33;;;;;;;9.37;66.54;93472.88;5013905;28;20457;-78
2023/03/22 02:13:04;;;;;;;3.38;3.08;;;;;;;9.27;66.23;93461.78;5012201;28;20021;-76
2023/03/22 02:15:42;;;;;;;2.40;2.20;;;;;;;9.16;66.04;93447.25;5011751;28;20034;-77
2023/03/22 02:18:32;;;;;;;2.50;2.30;;;;;;;9.36;66.21;93466.00;5001965;28;20018;-78
2023/03/22 02:21:03;;;;;;;2.60;2.40;;;;;;;9.40;65.72;93469.56;5011969;28;20417;-78
2023/03/22 02:24:03;;;;;;;2.90;2.10;;;;;;;9.27;66.13;93470.53;5008754;28;20095;-78
2023/03/22 02:27:03;;;;;;;2.90;2.58;;;;;;;9.03;66.48;93439.13;5012357;28;20057;-77
2023/03/22 02:29:51;;;;;;;2.80;2.53;;;;;;;9.26;66.26;93468.97;5012492;28;20125;-77
2023/03/22 02:32:38;;;;;;;2.15;1.80;;;;;;;9.19;66.20;93473.97;4996251;28;20048;-77
2023/03/22 02:35:32;;;;;;;3.70;2.35;;;;;;;9.27;65.74;93475.03;5012567;28;20077;-77
2023/03/22 02:38:27;;;;;;;1.83;1.65;;;;;;;9.26;65.41;93479.56;5011511;28;20053;-76
2023/03/22 02:41:14;;;;;;;2.05;1.60;;;;;;;9.28;64.88;93476.63;5011160;28;20022;-78
2023/03/22 02:43:51;;;;;;;3.50;1.85;;;;;;;9.25;64.88;93478.00;5012470;28;20044;-77
2023/03/22 02:46:25;;;;;;;7.95;1.73;;;;;;;9.24;64.76;93489.69;5011467;28;20049;-78
2023/03/22 02:48:51;;;;;;;1.80;1.70;;;;;;;9.20;65.06;93491.44;5012641;28;20038;-78
2023/03/22 02:51:20;;;;;;;2.10;1.40;;;;;;;9.22;64.81;93494.56;5010373;28;20033;-77
2023/03/22 02:53:52;;;;;;;1.85;1.73;;;;;;;9.25;64.84;93493.94;5011549;28;20172;-77
2023/03/22 02:56:23;;;;;;;2.88;1.63;;;;;;;9.24;64.46;93491.59;5009228;28;20635;-79
2023/03/22 02:58:52;;;;;;;1.48;1.35;;;;;;;9.25;65.20;93493.94;5009840;28;20037;-78
2023/03/22 03:01:35;;;;;;;1.55;1.30;;;;;;;9.19;64.21;93479.28;5013026;28;20037;-77
2023/03/22 03:04:05;;;;;;;1.40;1.30;;;;;;;9.11;63.82;93477.38;5012457;28;20056;-77
2023/03/22 03:06:37;;;;;;;3.50;3.10;;;;;;;9.05;64.43;93478.59;4993652;28;20053;-77
2023/03/22 03:09:04;;;;;;;3.08;2.60;;;;;;;8.90;64.72;93476.41;5013961;28;20026;-79
2023/03/22 03:11:30;;;;;;;4.55;2.67;;;;;;;8.88;65.01;93478.59;5010601;28;20082;-76
2023/03/22 03:13:56;;;;;;;1.95;1.70;;;;;;;8.93;65.16;93499.66;5010593;28;20045;-78
2023/03/22 03:16:26;;;;;;;1.85;1.75;;;;;;;8.78;65.58;93474.34;5011520;28;20083;-78
2023/03/22 03:19:16;;;;;;;1.95;1.65;;;;;;;8.91;65.05;93493.84;5009539;28;20061;-77
2023/03/22 03:22:08;;;;;;;1.80;1.70;;;;;;;8.73;65.60;93495.72;4994011;28;20029;-77
2023/03/22 03:24:56;;;;;;;1.30;1.20;;;;;;;8.67;65.44;93475.72;4999492;28;20072;-77
2023/03/22 03:27:35;;;;;;;1.30;1.20;;;;;;;8.84;65.10;93493.56;5004855;28;20042;-77
2023/03/22 03:30:09;;;;;;;2.88;1.13;;;;;;;8.91;65.27;93501.81;5010050;28;20535;-77
2023/03/22 03:32:40;;;;;;;1.60;1.50;;;;;;;8.92;65.25;93500.72;4998482;28;20152;-77
2023/03/22 03:35:21;;;;;;;1.80;1.40;;;;;;;8.95;65.16;93500.88;4997094;28;20034;-78
2023/03/22 03:37:51;;;;;;;1.30;1.20;;;;;;;8.80;64.95;93480.13;5008737;28;20050;-77
2023/03/22 03:40:30;;;;;;;2.60;1.30;;;;;;;8.85;65.32;93495.13;5011306;28;20037;-77
2023/03/22 03:42:58;;;;;;;1.85;1.17;;;;;;;8.78;64.72;93478.88;5009579;28;20046;-79
2023/03/22 03:45:24;;;;;;;1.42;1.33;;;;;;;8.89;65.75;93498.72;5011077;28;20131;-77
2023/03/22 03:47:55;;;;;;;1.38;1.20;;;;;;;8.92;65.65;93498.88;5009914;28;20208;-78
2023/03/22 03:50:22;;;;;;;1.85;1.75;;;;;;;9.02;65.46;93506.53;4993643;28;20841;-79
2023/03/22 03:52:49;;;;;;;2.75;2.17;;;;;;;8.93;65.34;93505.75;5009347;28;20129;-79
2023/03/22 03:55:14;;;;;;;3.42;2.22;;;;;;;8.95;65.29;93510.75;5008203;28;20134;-77
2023/03/22 03:57:40;;;;;;;2.97;2.17;;;;;;;8.99;65.54;93506.38;5010055;28;20033;-79
2023/03/22 04:00:06;;;;;;;2.55;1.98;;;;;;;8.99;65.61;93506.38;5010423;28;20033;-78
2023/03/22 04:02:32;;;;;;;3.67;2.22;;;;;;;9.08;64.70;93512.47;5010707;28;20121;-77
2023/03/22 04:04:57;;;;;;;2.53;2.33;;;;;;;8.86;65.34;93496.66;4995473;28;20029;-77
2023/03/22 04:07:23;;;;;;;4.05;2.60;;;;;;;8.89;66.03;93511.97;5010091;28;20037;-77
2023/03/22 04:09:48;;;;;;;2.85;2.10;;;;;;;8.69;66.64;93494.78;5002127;28;20573;-78
2023/03/22 04:12:14;;;;;;;2.80;2.60;;;;;;;8.72;66.70;93503.97;4992046;28;20029;-78
2023/03/22 04:14:40;;;;;;;3.22;2.72;;;;;;;8.91;66.47;93505.25;5010470;28;20038;-76
2023/03/22 04:17:05;;;;;;;3.83;3.00;;;;;;;8.86;65.87;93491.34;5002290;28;21015;-79
2023/03/22 04:19:31;;;;;;;3.47;3.17;;;;;;;8.96;66.46;93507.75;4998037;28;20132;-78
2023/03/22 04:21:57;;;;;;;2.92;2.63;;;;;;;9.06;66.07;93512.00;4992506;28;20044;-75
2023/03/22 04:24:22;;;;;;;3.33;3.03;;;;;;;8.97;65.96;93503.25;5010032;28;22084;-75
2023/03/22 04:26:47;;;;;;;3.45;3.15;;;;;;;8.97;66.47;93519.16;5007864;28;20050;-75
2023/03/22 04:29:13;;;;;;;4.03;3.10;;;;;;;8.98;66.35;93518.84;5010414;28;20040;-77
2023/03/22 04:31:38;;;;;;;4.88;3.47;;;;;;;9.02;66.01;93519.00;5006126;28;20152;-76
2023/03/22 04:34:04;;;;;;;4.10;3.70;;;;;;;9.07;65.64;93521.50;4992161;28;20037;-76
2023/03/22 04:36:35;;;;;;;4.15;3.08;;;;;;;8.92;66.41;93522.72;5008990;28;20018;-77
2023/03/22 04:39:05;;;;;;;3.58;3.10;;;;;;;8.89;66.47;93533.97;5008963;28;20048;-77
2023/03/22 04:41:31;;;;;;;5.45;3.80;;;;;;;8.85;66.76;93533.00;5003107;28;20037;-78
2023/03/22 04:44:01;;;;;;;3.58;3.15;;;;;;;8.84;66.62;93520.06;5008384;28;20697;-78
2023/03/22 04:46:27;;;;;;;3.72;3.38;;;;;;;8.88;66.76;93535.06;5008386;28;20539;-77
2023/03/22 04:48:52;;;;;;;3.45;3.15;;;;;;;8.92;66.64;93529.91;5007826;28;20038;-78
2023/03/22 04:51:17;;;;;;;4.20;3.80;;;;;;;8.90;66.39;93522.25;5009633;28;20444;-77
2023/03/22 04:53:43;;;;;;;4.22;3.67;;;;;;;8.85;66.68;93519.75;5006921;28;20775;-77
2023/03/22 04:56:12;;;;;;;3.38;3.08;;;;;;;8.98;66.38;93552.56;5010738;28;20037;-77
2023/03/22 04:58:39;;;;;;;3.95;3.55;;;;;;;8.96;66.26;93549.41;4991277;28;20048;-77
2023/03/22 05:01:05;;;;;;;4.25;3.63;;;;;;;8.80;66.55;93524.44;4996285;28;20034;-78
2023/03/22 05:03:31;;;;;;;4.57;4.15;;;;;;;9.07;65.61;93558.66;4989787;28;20356;-79
2023/03/22 05:06:01;;;;;;;4.35;3.90;;;;;;;9.02;65.98;93548.19;5009655;28;20122;-79
2023/03/22 05:08:29;;;;;;;6.95;5.38;;;;;;;8.98;66.12;93547.25;5010312;28;20095;-78
2023/03/22 05:10:56;;;;;;;10.48;6.47;;;;;;;8.97;66.17;93556.28;5008481;28;20528;-77
2023/03/22 05:13:24;;;;;;;8.57;5.72;;;;;;;8.89;66.20;93546.44;5009915;28;20456;-79
2023/03/22 05:15:50;;;;;;;10.10;6.97;;;;;;;8.95;66.57;93555.84;5008805;28;20429;-77
2023/03/22 05:18:19;;;;;;;14.45;7.97;;;;;;;8.97;66.33;93558.94;4998446;28;20036;-77
2023/03/22 05:20:45;;;;;;;12.82;8.82;;;;;;;9.03;66.09;93561.16;5007055;28;20096;-78
2023/03/22 05:23:12;;;;;;;10.60;7.55;;;;;;;8.94;66.16;93543.66;5010325;28;20533;-79
2023/03/22 05:25:37;;;;;;;11.00;5.85;;;;;;;9.02;65.60;93569.41;4997799;28;20123;-77
2023/03/22 05:28:03;;;;;;;8.23;5.43;;;;;;;9.09;66.10;93563.66;5006068;28;20042;-79
2023/03/22 05:30:30;;;;;;;6.22;4.88;;;;;;;8.94;66.04;93551.59;5010779;28;20021;-78
2023/03/22 05:33:02;;;;;;;8.48;5.85;;;;;;;8.97;66.45;93566.91;5009811;28;20044;-76
2023/03/22 05:35:30;;;;;;;7.93;5.10;;;;;;;8.92;66.49;93553.78;5009746;28;20029;-78
2023/03/22 05:37:56;;;;;;;4.90;4.40;;;;;;;9.00;66.38;93571.56;5007925;28;20040;-77
2023/03/22 05:40:23;;;;;;;5.07;4.18;;;;;;;8.83;67.23;93555.63;5010494;28;20033;-78
2023/03/22 05:42:49;;;;;;;4.28;3.88;;;;;;;9.00;66.58;93567.06;5010736;28;20144;-78
2023/03/22 05:45:14;;;;;;;5.22;3.97;;;;;;;8.85;66.40;93543.59;5012718;28;20021;-76
2023/03/22 05:47:41;;;;;;;5.22;4.18;;;;;;;9.16;66.35;93575.41;5012311;28;20040;-77
2023/03/22 05:50:09;;;;;;;4.90;4.07;;;;;;;9.04;66.24;93556.63;5012757;28;20037;-77
2023/03/22 05:52:35;;;;;;;5.20;4.03;;;;;;;9.18;66.40;93581.19;5011649;28;20077;-77
2023/03/22 05:55:01;;;;;;;4.47;3.90;;;;;;;9.07;66.49;93565.81;5012455;28;20057;-78
2023/03/22 05:57:28;;;;;;;4.43;4.03;;;;;;;9.17;66.80;93584.13;5011571;28;20136;-77
2023/03/22 05:59:57;;;;;;;5.32;4.47;;;;;;;9.29;66.34;93589.63;5012938;28;20072;-77
2023/03/22 06:02:23;;;;;;;5.28;4.78;;;;;;;9.22;66.54;93579.47;5012413;28;20061;-77
2023/03/22 06:04:48;;;;;;;5.43;4.68;;;;;;;9.11;66.56;93578.19;4994374;28;20104;-77
2023/03/22 06:07:14;;;;;;;9.20;5.10;;;;;;;9.10;67.22;93583.75;5015458;28;21034;-78
2023/03/22 06:09:40;;;;;;;5.18;4.15;;;;;;;9.18;66.88;93593.66;5010218;28;20081;-78
2023/03/22 06:12:06;;;;;;;5.10;4.28;;;;;;;9.08;66.87;93578.78;5014301;28;20382;-77
2023/03/22 06:14:31;;;;;;;6.43;5.22;;;;;;;9.28;66.63;93599.47;4992996;28;20034;-79
2023/03/22 06:16:56;;;;;;;6.47;5.10;;;;;;;9.16;66.11;93575.41;5011259;28;20529;-79
2023/03/22 06:19:24;;;;;;;7.55;6.75;;;;;;;9.31;66.06;93593.53;5010643;28;20034;-79
2023/03/22 06:21:51;;;;;;;5.22;4.78;;;;;;;9.21;66.46;93588.50;5010754;28;20165;-78
2023/03/22 06:24:17;;;;;;;5.07;4.57;;;;;;;9.18;65.98;93588.34;5010137;28;20535;-78
2023/03/22 06:26:42;;;;;;;10.40;5.45;;;;;;;9.14;66.99;93598.03;4994319;28;22058;-77
2023/03/22 06:29:08;;;;;;;7.65;6.78;;;;;;;9.17;66.58;93595.53;5011766;28;20124;-78
2023/03/22 06:31:33;;;;;;;7.05;6.03;;;;;;;9.20;67.08;93596.78;5010764;28;20111;-77
2023/03/22 06:33:59;;;;;;;9.77;6.80;;;;;;;9.00;67.45;93579.53;5013121;28;20041;-78
2023/03/22 06:36:24;;;;;;;10.00;8.20;;;;;;;8.93;67.98;93574.69;5011425;28;20445;-78
2023/03/22 06:38:50;;;;;;;12.65;7.85;;;;;;;9.13;67.35;93585.84;4999639;28;20826;-77
2023/03/22 06:41:15;;;;;;;6.28;4.82;;;;;;;9.24;67.53;93597.75;5008697;28;20038;-78
2023/03/22 06:43:41;;;;;;;4.25;3.85;;;;;;;9.31;66.65;93614.75;5012141;28;20076;-77
2023/03/22 06:46:06;;;;;;;3.83;3.28;;;;;;;9.33;65.89;93606.50;5010593;28;20052;-77
2023/03/22 06:48:31;;;;;;;3.75;3.08;;;;;;;9.23;66.43;93599.63;5013505;28;20037;-77
2023/03/22 06:50:58;;;;;;;3.20;2.97;;;;;;;9.25;66.28;93600.06;5009990;28;20058;-80
2023/03/22 06:53:24;;;;;;;3.03;2.70;;;;;;;9.27;65.42;93592.59;5010985;28;20048;-78
2023/03/22 06:55:49;;;;;;;2.97;2.72;;;;;;;9.42;65.11;93626.66;5009548;28;20041;-77
2023/03/22 06:58:15;;;;;;;3.15;2.85;;;;;;;9.44;65.14;93627.13;5010944;28;20100;-78
2023/03/22 07:00:40;;;;;;;3.20;2.70;;;;;;;9.33;65.67;93611.81;5011790;28;20034;-78
2023/03/22 07:03:06;;;;;;;3.88;2.88;;;;;;;9.34;65.72;93624.75;5010783;28;20468;-78
2023/03/22 07:05:31;;;;;;;3.63;3.28;;;;;;;9.25;64.83;93616.00;4988580;28;20093;-77
2023/03/22 07:07:57;;;;;;;3.17;2.90;;;;;;;9.19;64.93;93638.47;4990083;28;20564;-78
2023/03/22 07:10:22;;;;;;;3.25;2.95;;;;;;;9.07;65.49;93619.66;5012519;28;20092;-77
2023/03/22 07:12:48;;;;;;;4.03;3.63;;;;;;;8.96;65.15;93597.16;5007911;28;20661;-78
2023/03/22 07:15:13;;;;;;;4.07;3.67;;;;;;;9.28;65.19;93647.25;5009964;28;20037;-77
2023/03/22 07:17:39;;;;;;;4.93;3.20;;;;;;;9.15;65.76;93626.88;4993510;28;20033;-77
2023/03/22 07:20:05;;;;;;;3.92;3.63;;;;;;;9.25;66.31;93641.75;4993622;28;20037;-77
2023/03/22 07:22:30;;;;;;;5.13;3.70;;;;;;;9.15;67.52;93636.72;4998376;28;20064;-77
2023/03/22 07:24:55;;;;;;;4.72;4.25;;;;;;;9.16;67.21;93631.13;5009544;28;20847;-77
2023/03/22 07:27:21;;;;;;;7.63;5.13;;;;;;;9.34;67.39;93653.19;4992061;28;20028;-76
2023/03/22 07:29:46;;;;;;;7.30;6.25;;;;;;;9.09;68.87;93637.94;5009069;28;20033;-77
2023/03/22 07:32:12;;;;;;;5.60;4.82;;;;;;;9.27;66.76;93629.75;5010229;28;20584;-76
2023/03/22 07:34:37;;;;;;;5.55;4.88;;;;;;;9.42;66.69;93658.50;4991287;28;20413;-78
2023/03/22 07:37:03;;;;;;;6.07;4.25;;;;;;;9.40;67.21;93647.41;5011497;28;20045;-77
2023/03/22 07:39:29;;;;;;;5.22;4.05;;;;;;;9.48;66.95;93661.81;5009280;28;20057;-78
2023/03/22 07:41:55;;;;;;;2.35;2.10;;;;;;;9.60;65.58;93669.16;5009636;28;20054;-77
2023/03/22 07:44:20;;;;;;;4.60;2.55;;;;;;;9.63;62.48;93663.25;5009599;28;20043;-77
2023/03/22 07:46:46;;;;;;;2.58;2.38;;;;;;;9.73;62.28;93670.91;5009385;28;20884;-76
2023/03/22 07:49:12;;;;;;;3.75;1.88;;;;;;;9.88;62.59;93665.91;5011388;28;20056;-77
2023/03/22 07:51:38;;;;;;;2.20;1.85;;;;;;;9.70;62.29;93655.56;4993376;28;20029;-77
2023/03/22 07:54:03;;;;;;;3.13;2.50;;;;;;;9.72;62.21;93664.03;4990618;28;20036;-78
2023/03/22 07:56:29;;;;;;;3.65;2.08;;;;;;;9.64;64.89;93675.41;4992237;28;20498;-77
2023/03/22 07:58:54;;;;;;;2.28;2.08;;;;;;;9.54;65.42;93665.06;5007163;28;20531;-77
2023/03/22 08:01:20;;;;;;;2.42;2.22;;;;;;;9.32;65.09;93626.94;5007278;28;20038;-77
2023/03/22 08:03:45;;;;;;;2.65;2.30;;;;;;;9.56;64.32;93665.56;5009056;28;20021;-77
2023/03/22 08:06:11;;;;;;;2.85;2.63;;;;;;;9.64;63.51;93676.19;5009848;28;20030;-78
2023/03/22 08:08:37;;;;;;;3.90;3.38;;;;;;;9.71;62.45;93665.13;5005212;28;20033;-77
2023/03/22 08:11:04;;;;;;;3.58;2.80;;;;;;;9.84;60.83;93670.28;5007694;28;20573;-79
2023/03/22 08:13:30;;;;;;;3.28;2.65;;;;;;;9.62;62.74;93635.13;5009629;28;20088;-77
2023/03/22 08:15:55;;;;;;;2.53;2.33;;;;;;;9.92;61.95;93666.09;5007356;28;20554;-77
2023/03/22 08:18:21;;;;;;;3.00;2.65;;;;;;;9.81;61.96;93640.91;4991904;28;20823;-77
2023/03/22 08:20:55;;;;;;;3.05;2.20;;;;;;;9.94;63.81;93660.44;5007565;28;20083;-77
2023/03/22 08:23:22;;;;;;;17.25;3.10;;;;;;;9.83;63.01;93636.06;4991254;28;20041;-77
2023/03/22 08:25:48;;;;;;;4.00;2.75;;;;;;;9.94;63.42;93674.50;5009686;28;20372;-77
2023/03/22 08:28:14;;;;;;;2.50;2.30;;;;;;;9.89;64.22;93675.44;5008389;28;20553;-77
2023/03/22 08:30:41;;;;;;;3.40;2.95;;;;;;;9.95;64.53;93668.09;4995555;28;20120;-77
2023/03/22 08:33:06;;;;;;;4.57;3.85;;;;;;;9.97;64.57;93679.22;5006910;28;20140;-77
2023/03/22 08:35:32;;;;;;;4.78;3.60;;;;;;;9.68;65.21;93641.84;5010273;28;20060;-78
2023/03/22 08:37:58;;;;;;;5.95;5.20;;;;;;;9.78;66.36;93681.38;5004960;28;20164;-78
2023/03/22 08:40:23;;;;;;;8.93;6.70;;;;;;;9.75;67.06;93676.69;4990563;28;20041;-77
2023/03/22 08:42:49;;;;;;;6.95;5.95;;;;;;;9.75;67.46;93674.03;4981950;28;20029;-77
2023/03/22 08:45:16;;;;;;;7.68;6.45;;;;;;;9.81;67.16;93662.16;5004203;28;20029;-77
2023/03/22 08:47:41;;;;;;;4.30;3.42;;;;;;;9.79;67.90;93667.00;5004520;28;20043;-77
2023/03/22 08:50:08;;;;;;;6.82;3.70;;;;;;;9.70;67.13;93663.53;5007069;28;20041;-78
2023/03/22 08:52:34;;;;;;;4.18;2.90;;;;;;;9.97;66.34;93679.22;4970023;28;20096;-77
2023/03/22 08:55:00;;;;;;;4.38;3.80;;;;;;;9.84;65.93;93685.44;4973296;28;20054;-77
2023/03/22 08:57:26;;;;;;;3.40;2.92;;;;;;;9.92;65.24;93699.84;4993814;28;20025;-77
2023/03/22 08:59:52;;;;;;;5.75;5.13;;;;;;;9.86;65.39;93689.34;4992653;28;20069;-77
2023/03/22 09:02:18;;;;;;;11.35;8.75;;;;;;;9.89;64.61;93667.47;4976336;28;20092;-78
2023/03/22 09:04:44;;;;;;;9.70;8.60;;;;;;;9.82;65.86;93687.63;4999930;28;20527;-75
2023/03/22 09:07:09;;;;;;;12.85;8.90;;;;;;;9.83;65.89;93694.47;4999460;28;20045;-76
2023/03/22 09:09:35;;;;;;;9.95;8.80;;;;;;;9.75;66.50;93682.78;4996162;28;20025;-78
2023/03/22 09:12:01;;;;;;;15.52;8.98;;;;;;;9.79;66.09;93682.94;4998845;28;20717;-77
2023/03/22 09:14:26;;;;;;;11.55;8.70;;;;;;;9.73;66.90;93695.56;4995590;28;20124;-77
2023/03/22 09:16:51;;;;;;;14.30;9.95;;;;;;;9.69;67.27;93686.66;5001710;28;21018;-77
2023/03/22 09:19:17;;;;;;;13.88;9.52;;;;;;;9.78;67.66;93706.03;5001465;28;20030;-76
2023/03/22 09:21:42;;;;;;;11.05;9.88;;;;;;;9.83;66.38;93697.16;4999884;28;20497;-78
2023/03/22 09:24:08;;;;;;;13.05;8.48;;;;;;;9.71;66.97;93694.31;4999847;28;20356;-76
2023/03/22 09:26:35;;;;;;;10.38;7.72;;;;;;;9.66;67.22;93694.47;4985558;28;20045;-77
2023/03/22 09:29:01;;;;;;;9.05;7.15;;;;;;;9.78;67.38;93703.38;5002248;28;20581;-77
2023/03/22 09:31:27;;;;;;;9.52;6.68;;;;;;;9.72;67.42;93678.09;4998404;28;20053;-76
2023/03/22 09:33:52;;;;;;;8.82;6.32;;;;;;;9.85;66.95;93693.09;4983153;28;20033;-77
2023/03/22 09:36:18;;;;;;;7.40;6.40;;;;;;;9.64;67.08;93664.78;5002459;28;20084;-77
2023/03/22 09:38:45;;;;;;;9.05;7.03;;;;;;;9.89;66.17;93698.56;4988692;28;20037;-76
2023/03/22 09:41:22;;;;;;;9.40;6.68;;;;;;;9.98;66.23;93706.53;5000293;28;20698;-78
2023/03/22 09:43:53;;;;;;;7.50;6.63;;;;;;;9.87;66.47;93690.16;5000056;28;20143;-77
2023/03/22 09:46:45;;;;;;;7.35;6.45;;;;;;;9.92;67.50;93703.28;5002345;28;20505;-76
2023/03/22 09:49:15;;;;;;;10.43;7.00;;;;;;;9.92;67.41;93697.97;5000954;28;20106;-79
2023/03/22 09:51:41;;;;;;;7.80;7.00;;;;;;;9.96;66.58;93706.88;5002033;28;20326;-78
2023/03/22 09:54:14;;;;;;;9.05;6.88;;;;;;;9.98;66.99;93704.66;4983064;28;20021;-78
2023/03/22 09:56:39;;;;;;;9.02;7.65;;;;;;;9.88;67.53;93700.44;4999087;28;20042;-78
2023/03/22 09:59:16;;;;;;;8.70;7.65;;;;;;;10.01;67.15;93700.63;5000731;28;20667;-76
2023/03/22 10:01:55;;;;;;;9.55;8.55;;;;;;;9.98;67.28;93704.66;5000883;28;20060;-77
2023/03/22 10:04:24;;;;;;;12.75;8.60;;;;;;;9.98;67.58;93696.69;4998707;28;20047;-79
2023/03/22 10:07:05;;;;;;;9.63;8.35;;;;;;;9.93;67.62;93694.19;4996585;28;20048;-77
2023/03/22 10:09:44;;;;;;;12.57;8.90;;;;;;;9.94;67.73;93682.47;4989885;28;20041;-77
2023/03/22 10:12:12;;;;;;;10.10;8.13;;;;;;;10.16;67.35;93702.81;4988143;28;20033;-78
2023/03/22 10:14:40;;;;;;;8.85;7.80;;;;;;;10.17;67.66;93710.47;5003596;28;20601;-79
2023/03/22 10:17:16;;;;;;;12.02;8.73;;;;;;;10.09;66.83;93695.31;4984983;28;20037;-77
2023/03/22 10:20:30;;;;;;;8.75;7.65;;;;;;;10.08;67.30;93715.00;5002510;28;20030;-76
2023/03/22 10:22:59;;;;;;;7.78;6.93;;;;;;;9.00;68.88;93720.13;4970780;28;20072;-77
2023/03/22 10:25:34;;;;;;;11.43;8.43;;;;;;;8.79;70.00;93700.53;5001905;28;20527;-77
2023/03/22 10:27:59;;;;;;;7.27;6.57;;;;;;;9.07;69.44;93709.88;5003084;28;20461;-77
2023/03/22 10:30:29;;;;;;;9.25;7.05;;;;;;;9.15;68.02;93679.94;4986302;28;20488;-76
2023/03/22 10:33:02;;;;;;;8.60;7.70;;;;;;;9.24;68.59;93715.25;4999562;28;20107;-78
2023/03/22 10:35:29;;;;;;;10.80;8.68;;;;;;;8.36;71.83;93703.69;5001164;28;20469;-77
2023/03/22 10:37:59;;;;;;;9.65;8.75;;;;;;;8.93;70.34;93693.25;4999816;28;20050;-78
2023/03/22 10:40:29;;;;;;;11.02;8.85;;;;;;;9.25;69.02;93710.75;5002070;28;20051;-77
2023/03/22 10:42:59;;;;;;;8.93;7.57;;;;;;;9.61;68.26;93691.97;4981930;28;20312;-77
2023/03/22 10:45:26;;;;;;;9.05;7.72;;;;;;;9.82;67.11;93708.88;5000150;28;20133;-78
2023/03/22 10:47:51;;;;;;;7.85;6.35;;;;;;;9.47;67.47;93717.84;5001762;28;20826;-78
2023/03/22 10:50:25;;;;;;;7.90;6.28;;;;;;;9.57;66.40;93696.34;5004797;28;20042;-78
2023/03/22 10:52:58;;;;;;;8.02;6.65;;;;;;;9.83;66.55;93705.13;5001576;28;20128;-77
2023/03/22 10:55:24;;;;;;;9.32;7.38;;;;;;;9.85;66.17;93708.25;5004452;28;20052;-76
2023/03/22 10:58:27;;;;;;;10.10;6.97;;;;;;;9.63;67.38;93716.34;5004091;28;20517;-76
2023/03/22 11:00:56;;;;;;;8.45;6.65;;;;;;;9.92;67.07;93716.56;4989179;28;20351;-76
2023/03/22 11:03:33;;;;;;;8.30;7.38;;;;;;;10.09;66.66;93713.91;5000272;28;20025;-77
2023/03/22 11:06:13;;;;;;;7.10;6.32;;;;;;;9.82;65.60;93714.97;5000608;28;20068;-77
2023/03/22 11:08:52;;;;;;;7.82;6.05;;;;;;;9.95;65.53;93697.31;5001987;28;20409;-76
2023/03/22 11:11:26;;;;;;;8.80;7.90;;;;;;;9.99;65.87;93677.00;5001161;28;20141;-77
2023/03/22 11:13:58;;;;;;;9.90;7.88;;;;;;;10.24;65.46;93707.34;4999399;28;20053;-77
2023/03/22 11:16:24;;;;;;;8.38;7.32;;;;;;;9.96;66.48;93700.78;5001849;28;20053;-77
2023/03/22 11:18:50;;;;;;;9.68;7.78;;;;;;;9.74;67.81;93701.66;5001489;28;20025;-76
2023/03/22 11:21:16;;;;;;;8.90;7.50;;;;;;;9.55;68.29;93696.63;5000973;28;20572;-77
2023/03/22 11:23:54;;;;;;;11.65;8.00;;;;;;;9.41;67.97;93688.78;5002211;28;20120;-76
2023/03/22 11:26:30;;;;;;;10.27;7.50;;;;;;;9.85;66.64;93697.63;4983334;28;20862;-77
2023/03/22 11:29:17;;;;;;;8.45;7.55;;;;;;;9.81;65.69;93673.56;5001984;28;20592;-77
2023/03/22 11:31:55;;;;;;;13.43;8.75;;;;;;;9.99;65.80;93689.50;4995457;28;20038;-77
2023/03/22 11:34:23;;;;;;;12.50;8.13;;;;;;;10.08;65.68;93699.03;5000713;28;20033;-76
2023/03/22 11:36:55;;;;;;;12.38;9.35;;;;;;;10.07;65.31;93689.53;4999750;28;20076;-77
2023/03/22 11:39:22;;;;;;;16.92;9.27;;;;;;;10.24;64.93;93697.50;4997269;28;20511;-78
2023/03/22 11:41:48;;;;;;;17.63;9.95;;;;;;;10.22;64.43;93697.00;5002503;28;20149;-77
2023/03/22 11:44:20;;;;;;;12.15;7.32;;;;;;;10.02;63.06;93651.72;4999999;28;20882;-77
2023/03/22 11:46:53;;;;;;;11.60;7.50;;;;;;;9.85;63.66;93644.50;5000900;28;20041;-77
2023/03/22 11:49:22;;;;;;;11.57;7.63;;;;;;;10.09;64.06;93682.00;4998710;28;20030;-76